Time;durP1;ratioP1;P1;durP2;ratioP2;P2;SDS_P1;SDS_P2;PMS_P1;PMS_P2;Temp;Humidity;BMP_temperature;BMP_pressure;BME280_temperature;BME280_humidity;BME280_pressure;Samples;Min_cycle;Max_cycle;Signal;HPM_P1;HPM_P2
2024/02/19 00:01:05;;;;;;;9.98;5.63;;;;;;;4.19;100.00;101305.53;5022735;28;20140;-66
2024/02/19 00:03:31;;;;;;;11.82;5.20;;;;;;;4.19;100.00;101302.88;5041223;28;20093;-66
2024/02/19 00:05:56;;;;;;;14.52;5.28;;;;;;;4.19;100.00;101305.53;5040510;28;20029;-66
2024/02/19 00:08:22;;;;;;;10.95;5.38;;;;;;;4.18;100.00;101298.53;5039968;28;20036;-66
2024/02/19 00:10:47;;;;;;;8.75;4.97;;;;;;;4.18;100.00;101295.88;5022418;28;20591;-67
2024/02/19 00:13:13;;;;;;;10.15;5.80;;;;;;;4.19;100.00;101302.03;5041104;28;20041;-67
2024/02/19 00:15:38;;;;;;;12.68;5.32;;;;;;;4.19;100.00;101297.53;5041096;28;20037;-66
2024/02/19 00:18:05;;;;;;;9.88;5.03;;;;;;;4.18;100.00;101293.22;5040267;28;20025;-67
2024/02/19 00:20:30;;;;;;;8.25;4.07;;;;;;;4.17;100.00;101294.22;5041216;28;20022;-66
2024/02/19 00:22:56;;;;;;;9.25;4.90;;;;;;;4.16;100.00;101287.19;5040515;28;20574;-67
2024/02/19 00:25:21;;;;;;;8.85;4.28;;;;;;;4.14;100.00;101282.97;5041269;28;20041;-66
2024/02/19 00:27:47;;;;;;;9.43;4.10;;;;;;;4.17;100.00;101288.03;5041426;28;20049;-68
2024/02/19 00:30:12;;;;;;;10.77;4.43;;;;;;;4.02;100.00;101260.19;5023140;28;20060;-67
2024/02/19 00:32:38;;;;;;;12.25;4.43;;;;;;;4.14;100.00;101275.84;5041632;28;20029;-66
2024/02/19 00:35:06;;;;;;;10.77;4.38;;;;;;;4.06;100.00;101273.06;5041442;28;20721;-66
2024/02/19 00:37:32;;;;;;;7.13;3.92;;;;;;;4.17;100.00;101288.88;5039157;28;20104;-66
2024/02/19 00:39:57;;;;;;;14.32;4.47;;;;;;;4.15;100.00;101288.19;5041798;28;20120;-66
2024/02/19 00:42:24;;;;;;;11.90;4.40;;;;;;;4.13;100.00;101283.97;5040836;28;20392;-66
2024/02/19 00:44:50;;;;;;;13.70;4.38;;;;;;;4.17;100.00;101288.03;5042232;28;20030;-66
2024/02/19 00:47:15;;;;;;;11.02;4.30;;;;;;;4.17;100.00;101293.34;5042142;28;20387;-66
2024/02/19 00:49:41;;;;;;;11.57;4.32;;;;;;;4.17;100.00;101294.22;5041096;28;20132;-67
2024/02/19 00:52:06;;;;;;;15.32;4.38;;;;;;;4.15;100.00;101290.00;5040990;28;20599;-66
2024/02/19 00:54:31;;;;;;;19.95;4.90;;;;;;;4.19;100.00;101288.72;5040931;28;20044;-68
2024/02/19 00:56:57;;;;;;;11.05;4.00;;;;;;;4.18;100.00;101293.22;5040578;28;20083;-66
2024/02/19 00:59:22;;;;;;;6.20;3.38;;;;;;;4.19;100.00;101286.91;5041791;28;20388;-67
2024/02/19 01:01:48;;;;;;;14.32;4.65;;;;;;;4.19;100.00;101284.22;5041337;28;20041;-67
2024/02/19 01:04:13;;;;;;;19.52;5.13;;;;;;;4.20;100.00;101290.38;5040104;28;20025;-66
2024/02/19 01:06:39;;;;;;;12.82;4.53;;;;;;;4.16;100.00;101281.84;5040099;28;20056;-67
2024/02/19 01:09:04;;;;;;;9.82;4.07;;;;;;;4.17;100.00;101280.91;5040304;28;20097;-67
2024/02/19 01:11:30;;;;;;;22.10;4.85;;;;;;;4.16;100.00;101284.53;5038925;28;20034;-66
2024/02/19 01:13:55;;;;;;;7.70;3.58;;;;;;;4.15;100.00;101282.84;5038426;28;20040;-67
2024/02/19 01:16:21;;;;;;;21.58;4.65;;;;;;;4.16;100.00;101283.69;5037491;28;20029;-67
2024/02/19 01:18:46;;;;;;;22.83;5.78;;;;;;;4.17;100.00;101288.03;5038269;28;20036;-67
2024/02/19 01:21:12;;;;;;;18.80;5.50;;;;;;;4.14;100.00;101288.31;5020190;28;20100;-66
2024/02/19 01:23:37;;;;;;;15.23;4.90;;;;;;;4.14;100.00;101286.50;5036922;28;20563;-67
2024/02/19 01:26:03;;;;;;;328.08;18.20;;;;;;;4.12;100.00;101293.78;5038101;28;20056;-67
2024/02/19 01:28:29;;;;;;;290.58;14.95;;;;;;;3.83;100.00;101255.75;5038551;28;20120;-68
2024/02/19 01:30:54;;;;;;;13.27;4.68;;;;;;;3.97;100.00;101295.22;5036429;28;20035;-67
2024/02/19 01:33:21;;;;;;;40.10;8.30;;;;;;;3.93;100.00;101293.84;5038578;28;20028;-68
2024/02/19 01:35:47;;;;;;;116.93;8.27;;;;;;;3.88;100.00;101290.78;5021904;28;20021;-67
2024/02/19 01:38:12;;;;;;;71.15;6.32;;;;;;;3.73;100.00;101266.44;5038775;28;20149;-67
2024/02/19 01:40:38;;;;;;;72.55;6.10;;;;;;;3.83;100.00;101293.03;5040286;28;20033;-66
2024/02/19 01:43:07;;;;;;;113.43;7.13;;;;;;;3.71;100.00;101268.41;5040108;28;20123;-84
2024/02/19 01:45:33;;;;;;;114.13;5.93;;;;;;;3.73;100.00;101288.56;5041473;28;20029;-74
2024/02/19 01:47:59;;;;;;;103.10;5.88;;;;;;;3.67;100.00;101290.94;5033711;28;20032;-67
2024/02/19 01:50:29;;;;;;;213.65;6.97;;;;;;;3.47;100.00;101267.00;5038987;28;20032;-67
2024/02/19 01:52:57;;;;;;;128.77;4.68;;;;;;;3.61;100.00;101284.38;5041280;28;20060;-67
2024/02/19 01:55:23;;;;;;;107.70;5.80;;;;;;;3.46;100.00;101260.03;5040180;28;20029;-67
2024/02/19 01:57:51;;;;;;;72.82;3.90;;;;;;;3.62;100.00;101286.06;5046297;28;20064;-69
2024/02/19 02:00:17;;;;;;;97.38;3.97;;;;;;;3.53;100.00;101287.75;5045753;28;20022;-67
2024/02/19 02:02:43;;;;;;;117.00;4.10;;;;;;;3.49;100.00;101282.84;5042099;28;20037;-67
2024/02/19 02:05:11;;;;;;;172.35;5.85;;;;;;;3.35;100.00;101275.31;5040013;28;20068;-66
2024/02/19 02:07:36;;;;;;;99.43;3.83;;;;;;;3.41;100.00;101288.03;5039240;28;20060;-66
2024/02/19 02:10:04;;;;;;;129.80;4.68;;;;;;;3.36;100.00;101292.94;5037702;28;20209;-66
2024/02/19 02:12:31;;;;;;;88.93;4.38;;;;;;;3.32;100.00;101284.41;5039368;28;20029;-67
2024/02/19 02:14:56;;;;;;;271.40;7.43;;;;;;;3.31;100.00;101280.03;5038260;28;20056;-66
2024/02/19 02:17:21;;;;;;;134.48;5.85;;;;;;;3.31;100.00;101285.34;5022237;28;20064;-67
2024/02/19 02:19:47;;;;;;;178.57;8.20;;;;;;;3.23;100.00;101270.13;5038368;28;20018;-67
2024/02/19 02:22:13;;;;;;;96.10;5.93;;;;;;;3.22;100.00;101268.44;5042042;28;20123;-68
2024/02/19 02:24:39;;;;;;;76.20;4.30;;;;;;;3.26;100.00;101269.00;5042842;28;20074;-67
2024/02/19 02:27:05;;;;;;;54.63;3.90;;;;;;;3.30;100.00;101271.22;5043147;28;20033;-66
2024/02/19 02:29:30;;;;;;;2.90;1.60;;;;;;;3.30;100.00;101265.91;5044268;28;20029;-71
2024/02/19 02:31:56;;;;;;;4.10;1.83;;;;;;;3.34;100.00;101270.94;5042842;28;20102;-67
2024/02/19 02:34:22;;;;;;;2.20;1.73;;;;;;;3.34;100.00;101270.94;5043422;28;20033;-68
2024/02/19 02:36:51;;;;;;;1.95;1.30;;;;;;;3.27;100.00;101260.03;5026297;28;20080;-68
2024/02/19 02:39:16;;;;;;;0.85;0.80;;;;;;;3.33;100.00;101266.63;5038916;28;20109;-67
2024/02/19 02:41:42;;;;;;;0.88;0.88;;;;;;;2.80;100.00;101183.63;5040907;28;20061;-67
2024/02/19 02:44:08;;;;;;;0.60;0.60;;;;;;;3.37;100.00;101276.81;5043870;28;20025;-67
2024/02/19 02:46:33;;;;;;;0.65;0.65;;;;;;;3.40;100.00;101270.38;5043942;28;20029;-67
2024/02/19 02:48:59;;;;;;;0.47;0.47;;;;;;;3.42;100.00;101269.28;5041671;28;20041;-70
2024/02/19 02:51:25;;;;;;;0.40;0.35;;;;;;;3.25;100.00;101238.06;5042049;28;20056;-68
2024/02/19 02:53:50;;;;;;;1.55;0.40;;;;;;;3.32;100.00;101268.44;5042562;28;20032;-67
2024/02/19 02:56:19;;;;;;;0.40;0.40;;;;;;;3.25;100.00;101278.81;5025788;28;20026;-68
2024/02/19 02:58:46;;;;;;;0.82;0.65;;;;;;;3.23;100.00;101275.44;5042340;28;20025;-68
2024/02/19 03:01:20;;;;;;;0.90;0.90;;;;;;;3.12;100.00;101283.56;5043905;28;20036;-67
2024/02/19 03:03:46;;;;;;;0.55;0.55;;;;;;;3.08;100.00;101281.28;5043820;28;20026;-67
2024/02/19 03:06:11;;;;;;;1.45;1.30;;;;;;;2.77;100.00;101231.75;5044210;28;20056;-67
2024/02/19 03:08:37;;;;;;;1.60;1.50;;;;;;;2.99;100.00;101282.97;5042535;28;20025;-68
2024/02/19 03:11:03;;;;;;;2.38;1.27;;;;;;;2.79;100.00;101282.94;5042395;28;20508;-67
2024/02/19 03:13:30;;;;;;;2.83;2.60;;;;;;;2.72;100.00;101284.47;5025387;28;20048;-67
2024/02/19 03:15:55;;;;;;;3.58;3.28;;;;;;;2.52;100.00;101264.16;5041561;28;20026;-67
2024/02/19 03:18:21;;;;;;;4.10;3.65;;;;;;;2.52;100.00;101288.91;5042118;28;20026;-67
2024/02/19 03:20:47;;;;;;;4.38;3.97;;;;;;;2.38;100.00;101272.47;5042662;28;20125;-67
2024/02/19 03:23:12;;;;;;;3.35;3.05;;;;;;;2.39;100.00;101282.97;5040910;28;20090;-67
2024/02/19 03:25:37;;;;;;;3.60;3.25;;;;;;;2.37;100.00;101292.88;5040255;28;20056;-66
2024/02/19 03:28:03;;;;;;;3.35;3.05;;;;;;;2.30;100.00;101287.25;5039722;28;20104;-69
2024/02/19 03:30:30;;;;;;;2.55;2.35;;;;;;;2.23;100.00;101296.75;5039879;28;20025;-67
2024/02/19 03:32:55;;;;;;;1.83;1.60;;;;;;;2.22;100.00;101288.88;5041590;28;20036;-68
2024/02/19 03:35:21;;;;;;;2.10;1.90;;;;;;;2.20;100.00;101296.16;5040721;28;20033;-68
2024/02/19 03:37:46;;;;;;;2.15;1.80;;;;;;;2.19;100.00;101294.50;5041396;28;20587;-68
2024/02/19 03:40:12;;;;;;;3.22;1.38;;;;;;;2.19;100.00;101298.00;5041313;28;20030;-67
2024/02/19 03:42:37;;;;;;;1.45;1.35;;;;;;;2.17;100.00;101291.97;5039941;28;20029;-67
2024/02/19 03:45:06;;;;;;;1.30;1.20;;;;;;;2.10;100.00;101294.31;5040394;28;20080;-67
2024/02/19 03:47:31;;;;;;;0.88;0.80;;;;;;;2.13;100.00;101287.06;5022721;28;20400;-68
2024/02/19 03:49:57;;;;;;;0.80;0.70;;;;;;;2.21;100.00;101289.88;5039821;28;20029;-67
2024/02/19 03:52:22;;;;;;;1.38;1.20;;;;;;;2.18;100.00;101301.59;5040138;28;20037;-67
2024/02/19 03:54:48;;;;;;;2.78;1.65;;;;;;;2.09;100.00;101299.75;5040697;28;20033;-67
2024/02/19 03:57:14;;;;;;;3.28;1.50;;;;;;;2.06;100.00;101295.53;5039471;28;20040;-67
2024/02/19 03:59:40;;;;;;;1.60;1.30;;;;;;;1.98;100.00;101284.72;5039837;28;20021;-67
2024/02/19 04:02:06;;;;;;;1.60;1.50;;;;;;;2.06;100.00;101297.38;5040626;28;20033;-67
2024/02/19 04:04:31;;;;;;;2.58;1.55;;;;;;;2.04;100.00;101299.28;5040028;28;20025;-68
2024/02/19 04:06:56;;;;;;;1.63;1.52;;;;;;;2.02;100.00;101303.88;5040593;28;20030;-68
2024/02/19 04:09:22;;;;;;;1.40;1.30;;;;;;;1.96;100.00;101310.56;5039231;28;20026;-67
2024/02/19 04:11:47;;;;;;;1.30;1.20;;;;;;;1.96;100.00;101307.09;5039622;28;20026;-67
2024/02/19 04:14:13;;;;;;;1.10;1.00;;;;;;;1.92;100.00;101303.00;5041424;28;20103;-67
2024/02/19 04:16:42;;;;;;;1.38;1.23;;;;;;;1.92;100.00;101303.00;5039767;28;20094;-67
2024/02/19 04:19:08;;;;;;;0.95;0.85;;;;;;;1.92;100.00;101309.16;5039588;28;20025;-66
2024/02/19 04:21:33;;;;;;;1.00;1.00;;;;;;;1.88;100.00;101313.03;5039969;28;20525;-67
2024/02/19 04:23:59;;;;;;;1.40;1.30;;;;;;;1.88;100.00;101316.50;5022647;28;20033;-68
2024/02/19 04:26:24;;;;;;;1.40;1.30;;;;;;;1.64;100.00;101273.50;5040577;28;20026;-68
2024/02/19 04:28:53;;;;;;;1.30;1.10;;;;;;;1.77;100.00;101286.56;5038897;28;20500;-67
2024/02/19 04:31:18;;;;;;;1.17;1.13;;;;;;;1.87;100.00;101298.09;5040301;28;20034;-67
2024/02/19 04:33:43;;;;;;;1.33;1.10;;;;;;;1.86;100.00;101309.69;5039119;28;20033;-67
2024/02/19 04:36:09;;;;;;;1.88;1.10;;;;;;;1.84;100.00;101311.59;5039359;28;20029;-67
2024/02/19 04:38:35;;;;;;;1.20;1.10;;;;;;;1.87;100.00;101314.00;5040219;28;20056;-67
2024/02/19 04:41:00;;;;;;;1.33;1.23;;;;;;;1.88;100.00;101318.34;5040818;28;20048;-67
2024/02/19 04:43:26;;;;;;;1.83;1.10;;;;;;;1.87;100.00;101306.03;5041271;28;20033;-67
2024/02/19 04:45:51;;;;;;;1.50;1.02;;;;;;;1.83;100.00;101310.78;5022739;28;20504;-66
2024/02/19 04:48:17;;;;;;;1.65;1.00;;;;;;;1.86;100.00;101305.22;5041922;28;20037;-67
2024/02/19 04:50:42;;;;;;;0.88;0.88;;;;;;;1.67;100.00;101275.91;5040844;28;20068;-69
2024/02/19 04:53:08;;;;;;;1.20;1.10;;;;;;;1.84;100.00;101309.78;5040360;28;20033;-67
2024/02/19 04:55:33;;;;;;;1.05;0.95;;;;;;;1.88;100.00;101319.16;5041220;28;20500;-66
2024/02/19 04:57:58;;;;;;;1.33;1.20;;;;;;;1.88;100.00;101310.38;5040347;28;20060;-67
2024/02/19 05:00:25;;;;;;;0.93;0.93;;;;;;;1.87;100.00;101306.03;5022083;28;20022;-67
2024/02/19 05:02:51;;;;;;;2.55;0.88;;;;;;;1.84;100.00;101307.13;5039055;28;20032;-67
2024/02/19 05:05:16;;;;;;;1.10;1.00;;;;;;;1.83;100.00;101313.44;5038460;28;20029;-66
2024/02/19 05:07:42;;;;;;;0.70;0.70;;;;;;;1.85;100.00;101303.53;5039516;28;20032;-67
2024/02/19 05:10:08;;;;;;;1.20;0.75;;;;;;;1.80;100.00;101310.19;5038117;28;20053;-67
2024/02/19 05:12:34;;;;;;;0.70;0.60;;;;;;;1.79;100.00;101322.63;5038316;28;20046;-66
2024/02/19 05:14:59;;;;;;;1.95;0.70;;;;;;;1.75;100.00;101318.53;5037697;28;20022;-67
2024/02/19 05:17:25;;;;;;;0.63;0.60;;;;;;;1.49;100.00;101275.66;5037335;28;20017;-67
2024/02/19 05:19:51;;;;;;;1.33;0.60;;;;;;;1.67;100.00;101298.94;5036813;28;20025;-67
2024/02/19 05:22:16;;;;;;;1.63;0.80;;;;;;;1.76;100.00;101316.75;5037399;28;20404;-67
2024/02/19 05:24:44;;;;;;;0.80;0.70;;;;;;;1.20;100.00;101226.88;5038113;28;20026;-68
2024/02/19 05:27:10;;;;;;;0.80;0.63;;;;;;;1.71;100.00;101314.44;5036898;28;20025;-68
2024/02/19 05:29:35;;;;;;;0.80;0.80;;;;;;;1.70;100.00;101319.91;5038117;28;20033;-69
2024/02/19 05:32:01;;;;;;;1.33;0.80;;;;;;;1.71;100.00;101319.75;5036975;28;20117;-67
2024/02/19 05:34:26;;;;;;;1.10;1.00;;;;;;;1.71;100.00;101327.72;5021539;28;20029;-67
2024/02/19 05:36:54;;;;;;;1.30;1.10;;;;;;;1.70;100.00;101326.03;5036997;28;20033;-66
2024/02/19 05:39:19;;;;;;;1.25;1.02;;;;;;;1.64;100.00;101307.97;5037088;28;20033;-66
2024/02/19 05:41:45;;;;;;;1.50;1.20;;;;;;;1.67;100.00;101322.81;5037463;28;20369;-66
2024/02/19 05:44:11;;;;;;;2.53;1.45;;;;;;;1.67;100.00;101326.31;5038386;28;20037;-66
2024/02/19 05:46:36;;;;;;;1.50;1.40;;;;;;;1.66;100.00;101332.59;5037635;28;20029;-67
2024/02/19 05:49:01;;;;;;;1.30;1.20;;;;;;;1.65;100.00;101329.06;5037944;28;20343;-66
2024/02/19 05:51:27;;;;;;;1.92;1.10;;;;;;;1.64;100.00;101316.78;5036995;28;20035;-66
2024/02/19 05:53:54;;;;;;;2.67;1.20;;;;;;;1.65;100.00;101329.06;5004906;28;20037;-67
2024/02/19 05:56:19;;;;;;;1.60;1.25;;;;;;;1.58;100.00;101311.97;5036172;28;20033;-66
2024/02/19 05:58:46;;;;;;;1.00;1.00;;;;;;;1.51;100.00;101312.63;5037040;28;20108;-67
2024/02/19 06:01:12;;;;;;;1.10;0.90;;;;;;;1.64;100.00;101329.22;5036948;28;20056;-68
2024/02/19 06:03:39;;;;;;;0.80;0.63;;;;;;;1.62;100.00;101331.13;5036636;28;20056;-67
2024/02/19 06:06:06;;;;;;;0.80;0.60;;;;;;;1.63;100.00;101335.50;5038348;28;20021;-65
2024/02/19 06:08:32;;;;;;;0.60;0.50;;;;;;;1.61;100.00;101337.41;5036788;28;20025;-67
2024/02/19 06:10:58;;;;;;;0.70;0.50;;;;;;;1.61;100.00;101332.13;5038405;28;20367;-66
2024/02/19 06:13:24;;;;;;;1.10;0.50;;;;;;;1.59;100.00;101334.03;5036263;28;20025;-66
2024/02/19 06:15:50;;;;;;;0.82;0.60;;;;;;;1.58;100.00;101327.06;5037578;28;20218;-67
2024/02/19 06:18:15;;;;;;;1.52;0.80;;;;;;;1.57;100.00;101336.00;5038436;28;20167;-66
2024/02/19 06:20:41;;;;;;;0.80;0.60;;;;;;;1.58;100.00;101343.81;5021027;28;20032;-67
2024/02/19 06:23:06;;;;;;;0.43;0.40;;;;;;;1.57;100.00;101338.66;5038637;28;20022;-67
2024/02/19 06:25:33;;;;;;;1.42;0.57;;;;;;;1.58;100.00;101332.38;5038629;28;20037;-68
2024/02/19 06:27:58;;;;;;;4.53;0.70;;;;;;;1.58;100.00;101335.03;5037877;28;20399;-68
2024/02/19 06:30:24;;;;;;;4.80;0.50;;;;;;;1.58;100.00;101337.66;5036852;28;20029;-68
2024/02/19 06:32:49;;;;;;;1.25;0.40;;;;;;;1.53;100.00;101342.53;5039017;28;20093;-69
2024/02/19 06:35:15;;;;;;;0.85;0.43;;;;;;;1.41;100.00;101337.25;5036855;28;20497;-67
2024/02/19 06:37:41;;;;;;;0.55;0.30;;;;;;;1.38;100.00;101337.50;5037569;28;20057;-68
2024/02/19 06:40:07;;;;;;;0.60;0.50;;;;;;;1.37;100.00;101342.94;5038474;28;20721;-67
2024/02/19 06:42:33;;;;;;;2.22;0.40;;;;;;;1.26;100.00;101312.03;5038241;28;20172;-66
2024/02/19 06:44:58;;;;;;;0.68;0.50;;;;;;;1.43;100.00;101349.56;5038942;28;20033;-69
2024/02/19 06:47:24;;;;;;;0.95;0.40;;;;;;;1.47;100.00;101346.53;5041034;28;20057;-67
2024/02/19 06:49:49;;;;;;;0.73;0.30;;;;;;;1.55;100.00;101351.19;5037806;28;20117;-67
2024/02/19 06:52:15;;;;;;;1.10;0.68;;;;;;;1.51;100.00;101350.59;5021330;28;20120;-67
2024/02/19 06:54:40;;;;;;;1.23;0.60;;;;;;;1.31;100.00;101332.84;5038781;28;20120;-66
2024/02/19 06:57:06;;;;;;;1.25;0.70;;;;;;;1.45;100.00;101358.22;5038602;28;20049;-67
2024/02/19 06:59:31;;;;;;;1.30;0.70;;;;;;;1.41;100.00;101358.47;5038174;28;20441;-67
2024/02/19 07:01:57;;;;;;;1.65;0.80;;;;;;;1.39;100.00;101355.13;5039005;28;20036;-69
2024/02/19 07:04:23;;;;;;;0.93;0.70;;;;;;;1.35;100.00;101361.63;5035258;28;20038;-66
2024/02/19 07:06:49;;;;;;;2.03;0.70;;;;;;;1.31;100.00;101368.16;5035107;28;20038;-66
2024/02/19 07:09:14;;;;;;;1.55;0.70;;;;;;;1.25;100.00;101358.03;5039114;28;20033;-66
2024/02/19 07:11:40;;;;;;;3.17;0.85;;;;;;;1.22;100.00;101358.28;5039462;28;20040;-66
2024/02/19 07:14:05;;;;;;;1.65;0.55;;;;;;;1.25;100.00;101373.94;5040900;28;20033;-66
2024/02/19 07:16:31;;;;;;;0.55;0.43;;;;;;;1.26;100.00;101370.34;5039615;28;20506;-66
2024/02/19 07:18:56;;;;;;;1.30;0.40;;;;;;;1.21;100.00;101372.53;5040416;28;20032;-66
2024/02/19 07:21:22;;;;;;;0.40;0.40;;;;;;;1.25;100.00;101381.06;5039095;28;20049;-66
2024/02/19 07:23:48;;;;;;;1.27;0.40;;;;;;;1.22;100.00;101379.50;5042552;28;20563;-66
2024/02/19 07:26:13;;;;;;;2.83;0.60;;;;;;;1.19;100.00;101379.75;5041713;28;20056;-66
2024/02/19 07:28:39;;;;;;;0.63;0.50;;;;;;;1.20;100.00;101377.97;5039140;28;20083;-66
2024/02/19 07:31:04;;;;;;;1.30;0.40;;;;;;;1.04;100.00;101362.44;5043820;28;20033;-66
2024/02/19 07:33:30;;;;;;;3.08;0.50;;;;;;;1.17;100.00;101385.19;5028364;28;20397;-66
2024/02/19 07:35:55;;;;;;;0.40;0.20;;;;;;;1.03;100.00;101366.06;5039658;28;20034;-66
2024/02/19 07:38:20;;;;;;;0.93;0.50;;;;;;;1.03;100.00;101364.25;5040892;28;20075;-66
2024/02/19 07:40:46;;;;;;;4.65;1.05;;;;;;;1.23;100.00;101397.09;5046335;28;20033;-67
2024/02/19 07:43:15;;;;;;;1.85;0.70;;;;;;;1.22;100.00;101389.25;5044405;28;20029;-66
2024/02/19 07:45:40;;;;;;;4.75;0.60;;;;;;;1.25;100.00;101397.81;5027107;28;20443;-66
2024/02/19 07:48:07;;;;;;;1.42;0.63;;;;;;;1.16;100.00;101387.97;5043369;28;20022;-66
2024/02/19 07:50:33;;;;;;;4.60;0.63;;;;;;;1.21;100.00;101392.88;5043577;28;20033;-66
2024/02/19 07:52:59;;;;;;;1.95;0.68;;;;;;;1.23;100.00;101397.09;5043516;28;20484;-66
2024/02/19 07:55:27;;;;;;;3.13;0.70;;;;;;;1.24;100.00;101393.47;5043155;28;20127;-75
2024/02/19 07:57:53;;;;;;;1.55;0.52;;;;;;;1.24;100.00;101406.72;5025894;28;20059;-71
2024/02/19 08:00:19;;;;;;;0.80;0.38;;;;;;;1.22;100.00;101408.66;5041459;28;20123;-66
2024/02/19 08:02:45;;;;;;;2.42;0.63;;;;;;;1.20;100.00;101405.31;5041434;28;20029;-67
2024/02/19 08:05:10;;;;;;;1.30;0.35;;;;;;;1.18;100.00;101412.53;5039048;28;20033;-67
2024/02/19 08:07:35;;;;;;;2.65;0.65;;;;;;;1.14;100.00;101392.53;5041869;28;20021;-66
2024/02/19 08:10:01;;;;;;;3.00;0.50;;;;;;;1.01;100.00;101375.94;5039233;28;20037;-66
2024/02/19 08:12:26;;;;;;;2.20;0.40;;;;;;;1.25;100.00;101404.91;5037917;28;20033;-66
2024/02/19 08:14:52;;;;;;;2.38;0.63;;;;;;;1.28;100.00;101409.97;5026423;28;20041;-69
2024/02/19 08:17:18;;;;;;;1.63;0.50;;;;;;;1.30;100.00;101414.19;5040405;28;20035;-66
2024/02/19 08:19:44;;;;;;;2.80;0.40;;;;;;;1.32;100.00;101417.53;5042538;28;20030;-66
2024/02/19 08:22:09;;;;;;;2.53;0.50;;;;;;;1.31;100.00;101415.88;5038045;28;20033;-67
2024/02/19 08:24:38;;;;;;;3.20;0.70;;;;;;;1.29;100.00;101415.16;5037977;28;20029;-66
2024/02/19 08:27:04;;;;;;;2.17;0.60;;;;;;;1.21;100.00;101403.50;5040788;28;20037;-66
2024/02/19 08:29:29;;;;;;;0.90;0.45;;;;;;;1.29;100.00;101417.81;5044399;28;20029;-66
2024/02/19 08:31:55;;;;;;;1.20;0.65;;;;;;;1.27;100.00;101418.91;5045654;28;20030;-67
2024/02/19 08:34:22;;;;;;;3.50;0.85;;;;;;;1.27;100.00;101417.09;5044620;28;20017;-67
2024/02/19 08:36:47;;;;;;;3.25;1.00;;;;;;;1.21;100.00;101406.13;5045848;28;20044;-67
2024/02/19 08:39:13;;;;;;;4.68;1.20;;;;;;;1.28;100.00;101428.53;5045405;28;20053;-66
2024/02/19 08:41:38;;;;;;;4.03;1.00;;;;;;;1.28;100.00;101423.22;5046659;28;20057;-66
2024/02/19 08:44:03;;;;;;;2.28;0.60;;;;;;;1.26;100.00;101419.84;5046375;28;20089;-66
2024/02/19 08:46:29;;;;;;;2.25;0.80;;;;;;;1.23;100.00;101423.63;5045070;28;20152;-66
2024/02/19 08:48:56;;;;;;;3.33;1.00;;;;;;;1.20;100.00;101418.56;5044910;28;20025;-66
2024/02/19 08:51:21;;;;;;;2.35;0.65;;;;;;;1.23;100.00;101425.44;5043073;28;20031;-67
2024/02/19 08:53:47;;;;;;;3.35;0.98;;;;;;;1.24;100.00;101424.44;5042024;28;20097;-66
2024/02/19 08:56:14;;;;;;;2.95;0.93;;;;;;;1.26;100.00;101422.50;5040606;28;20033;-69
2024/02/19 08:58:40;;;;;;;2.38;0.75;;;;;;;1.28;100.00;101424.06;5040328;28;20112;-67
2024/02/19 09:01:11;;;;;;;3.58;0.73;;;;;;;1.35;100.00;101424.41;5040073;28;20068;-66
2024/02/19 09:03:38;;;;;;;2.10;0.70;;;;;;;1.28;100.00;101402.84;5036390;28;20029;-67
2024/02/19 09:06:04;;;;;;;1.05;0.55;;;;;;;1.44;100.00;101436.09;5042594;28;20033;-67
2024/02/19 09:08:30;;;;;;;0.95;0.45;;;;;;;1.41;100.00;101426.56;5043434;28;20108;-66
2024/02/19 09:10:55;;;;;;;3.65;0.60;;;;;;;1.26;100.00;101396.84;5044915;28;20025;-66
2024/02/19 09:13:21;;;;;;;3.10;0.82;;;;;;;1.43;100.00;101429.97;5044301;28;20084;-67
2024/02/19 09:15:46;;;;;;;5.50;0.80;;;;;;;1.41;100.00;101424.75;5045195;28;20088;-66
2024/02/19 09:18:12;;;;;;;5.57;0.80;;;;;;;1.38;100.00;101430.31;5044894;28;20025;-67
2024/02/19 09:20:39;;;;;;;1.40;0.70;;;;;;;1.40;100.00;101432.84;5044745;28;20230;-71
2024/02/19 09:23:04;;;;;;;1.55;0.50;;;;;;;1.39;100.00;101426.72;5024356;28;20029;-66
2024/02/19 09:25:31;;;;;;;3.20;0.68;;;;;;;1.41;100.00;101416.81;5035594;28;20044;-67
2024/02/19 09:27:56;;;;;;;2.95;0.85;;;;;;;1.43;100.00;101424.66;5040336;28;20033;-67
2024/02/19 09:30:22;;;;;;;1.10;0.50;;;;;;;1.33;100.00;101391.91;5040594;28;20048;-66
2024/02/19 09:32:47;;;;;;;6.05;1.13;;;;;;;1.55;100.00;101417.50;5023090;28;20453;-67
2024/02/19 09:35:13;;;;;;;3.15;0.90;;;;;;;1.56;100.00;101419.19;5040311;28;20032;-67
2024/02/19 09:37:38;;;;;;;3.33;1.00;;;;;;;1.57;100.00;101412.91;5040310;28;20077;-67
2024/02/19 09:40:05;;;;;;;3.85;0.80;;;;;;;1.60;100.00;101415.31;5039515;28;20025;-67
2024/02/19 09:42:31;;;;;;;2.03;0.70;;;;;;;1.56;100.00;101403.28;5041045;28;20033;-67
2024/02/19 09:44:56;;;;;;;3.83;1.20;;;;;;;1.64;100.00;101419.41;5038137;28;20053;-67
2024/02/19 09:47:22;;;;;;;1.85;0.70;;;;;;;1.65;100.00;101421.91;5038449;28;20025;-67
2024/02/19 09:49:48;;;;;;;2.65;0.80;;;;;;;1.65;100.00;101421.06;5039634;28;20040;-66
2024/02/19 09:52:22;;;;;;;3.42;0.82;;;;;;;1.67;100.00;101411.19;5038959;28;20021;-66
2024/02/19 09:54:49;;;;;;;4.32;0.80;;;;;;;1.53;100.00;101384.97;5041880;28;20028;-69
2024/02/19 09:57:14;;;;;;;3.35;0.90;;;;;;;1.70;100.00;101410.94;5040204;28;20049;-67
2024/02/19 09:59:43;;;;;;;2.53;1.00;;;;;;;1.73;100.00;101410.69;5023380;28;20031;-66
2024/02/19 10:02:09;;;;;;;1.95;0.90;;;;;;;1.56;100.00;101376.75;5040918;28;20085;-66
2024/02/19 10:04:35;;;;;;;3.72;0.88;;;;;;;1.79;100.00;101409.34;5021618;28;20056;-66
2024/02/19 10:07:01;;;;;;;3.55;1.08;;;;;;;1.81;100.00;101410.03;5038126;28;20041;-66
2024/02/19 10:09:27;;;;;;;5.90;1.25;;;;;;;1.64;100.00;101382.25;5038086;28;20033;-66
2024/02/19 10:11:52;;;;;;;6.13;1.08;;;;;;;1.82;100.00;101412.59;5036551;28;20040;-67
2024/02/19 10:14:18;;;;;;;5.60;0.90;;;;;;;1.80;100.00;101414.50;5038163;28;20029;-66
2024/02/19 10:16:53;;;;;;;4.72;0.93;;;;;;;1.82;100.00;101417.03;5041433;28;20041;-68
2024/02/19 10:19:19;;;;;;;3.50;0.95;;;;;;;1.83;100.00;101418.72;5048623;28;20063;-67
2024/02/19 10:21:49;;;;;;;5.05;1.00;;;;;;;1.64;100.00;101380.44;5038420;28;20703;-66
2024/02/19 10:24:18;;;;;;;3.83;1.10;;;;;;;1.83;100.00;101408.13;5032859;28;20140;-66
2024/02/19 10:26:49;;;;;;;3.95;1.00;;;;;;;1.78;100.00;101394.38;5037927;28;20041;-66
2024/02/19 10:29:15;;;;;;;2.38;1.00;;;;;;;1.87;100.00;101414.84;5034665;28;20052;-66
2024/02/19 10:31:41;;;;;;;2.47;0.90;;;;;;;1.89;100.00;101410.25;5020393;28;20124;-66
2024/02/19 10:34:10;;;;;;;3.13;1.20;;;;;;;1.77;100.00;101380.28;5038208;28;20057;-70
2024/02/19 10:36:36;;;;;;;4.45;1.17;;;;;;;1.97;100.00;101412.28;5041280;28;20034;-72
2024/02/19 10:39:03;;;;;;;6.25;1.00;;;;;;;1.99;100.00;101399.72;5040779;28;20048;-74
2024/02/19 10:41:29;;;;;;;2.90;0.95;;;;;;;2.02;100.00;101405.63;5041487;28;20021;-74
2024/02/19 10:43:55;;;;;;;2.88;1.30;;;;;;;2.08;100.00;101407.72;5041058;28;20550;-66
2024/02/19 10:46:21;;;;;;;4.90;1.13;;;;;;;2.15;100.00;101404.56;5042292;28;20041;-66
2024/02/19 10:48:51;;;;;;;4.38;1.02;;;;;;;2.11;100.00;101378.25;5042334;28;20025;-69
2024/02/19 10:51:19;;;;;;;5.13;1.10;;;;;;;2.26;100.00;101394.72;5042905;28;20097;-66
2024/02/19 10:53:45;;;;;;;5.57;1.10;;;;;;;2.31;100.00;101389.00;5043327;28;20040;-66
2024/02/19 10:56:19;;;;;;;2.78;1.02;;;;;;;2.33;100.00;101387.91;5040749;28;20481;-66
2024/02/19 10:58:55;;;;;;;1.67;0.88;;;;;;;2.25;100.00;101371.81;5040656;28;20484;-67
2024/02/19 11:01:46;;;;;;;3.67;1.00;;;;;;;2.38;100.00;101381.34;5041325;28;20036;-68
2024/02/19 11:04:15;;;;;;;9.63;1.20;;;;;;;2.39;100.00;101385.72;5039409;28;20029;-67
2024/02/19 11:06:55;;;;;;;4.15;1.17;;;;;;;2.37;100.00;101392.97;5040881;28;20059;-66
2024/02/19 11:09:29;;;;;;;3.78;0.80;;;;;;;2.32;100.00;101380.94;5041186;28;20032;-66
2024/02/19 11:11:56;;;;;;;5.00;0.90;;;;;;;2.30;100.00;101388.16;5041336;28;20431;-67
2024/02/19 11:14:22;;;;;;;2.78;0.95;;;;;;;2.32;100.00;101390.72;5040570;28;20417;-67
2024/02/19 11:16:49;;;;;;;2.35;1.00;;;;;;;2.32;100.00;101383.59;5040857;28;20029;-66
2024/02/19 11:19:15;;;;;;;3.58;1.00;;;;;;;2.35;100.00;101385.97;5039799;28;20029;-66